Latest Weather Observations for Cape Moreton

IDQ60801

Issued at 5:32 am EST Tuesday 23 December 2014 (issued every 30 minutes, with the page automatically refreshed every 10 minutes)

About weather observations | Map of weather stations | Latest weather observations for QLD | Other Formats
Station Details ID: 040043 Name: CAPE MORETON LIGHTHOUSE Lat: -27.03 Lon: 153.47 Height: 99.9 m
Data from the previous 72 hours. | See also: Recent months at Cape Moreton
Date/Time
EST
Temp
°C
App
Temp
°C
Dew
Point
Rel
Hum
%
Delta-T
°C
Wind Press
QNH
hPa
Press
MSL
hPa
Rain
since 9 am
mm
Dir
 
Spd
km/h
Gust
km/h
Spd
kts
Gust
kts
23/05:30am 22.5 20.5 17.4 73 3.2 ESE 24 28 13 15 1015.7 1015.2 0.0
23/05:00am 22.3 20.2 17.2 73 3.1 ESE 24 30 13 16 1015.6 1015.1 0.0
23/04:30am 22.3 20.2 17.2 73 3.1 ESE 24 30 13 16 1015.4 1014.9 0.0
23/04:00am 22.1 20.8 17.2 74 3.0 ESE 20 26 11 14 1015.3 1014.8 0.0
23/03:30am 22.1 19.5 16.8 72 3.2 ESE 26 32 14 17 1015.2 1014.7 0.0
23/03:00am 22.0 19.7 16.7 72 3.2 ESE 24 30 13 16 1015.2 1014.7 0.0
23/02:30am 21.9 19.4 16.2 70 3.5 ESE 24 30 13 16 1015.2 1014.7 0.0
23/02:00am 21.9 20.0 15.7 68 3.7 ESE 20 24 11 13 1015.4 1014.9 0.0
23/01:30am 22.1 19.4 16.6 71 3.4 ESE 26 30 14 16 1015.7 1015.2 0.0
23/01:00am 22.0 19.2 16.3 70 3.5 E 26 32 14 17 1016.1 1015.6 0.0
23/12:30am 22.0 19.2 16.3 70 3.5 ESE 26 33 14 18 1016.2 1015.7 0.0
23/12:00am 22.3 19.2 16.6 70 3.5 ESE 28 35 15 19 1016.5 1016.0 0.0
 
Date/Time
EST
Temp
°C
App
Temp
°C
Dew
Point
Rel
Hum
%
Delta-T
°C
Wind Press
QNH
hPa
Press
MSL
hPa
Rain
since 9 am
mm
Dir
 
Spd
km/h
Gust
km/h
Spd
kts
Gust
kts
22/11:30pm 22.3 19.8 16.1 68 3.8 ESE 24 28 13 15 1016.9 1016.4 0.0
22/11:00pm 22.1 19.5 15.9 68 3.7 ESE 24 30 13 16 1017.3 1016.8 0.0
22/10:30pm 22.3 18.9 15.9 67 3.9 ESE 28 33 15 18 1017.4 1016.9 0.0
22/10:00pm 22.4 19.2 16.2 68 3.8 ESE 28 33 15 18 1017.6 1017.1 0.0
22/09:30pm 22.5 18.8 16.1 67 3.9 ESE 30 37 16 20 1017.4 1016.9 0.0
22/09:00pm 22.7 18.9 16.7 69 3.7 ESE 32 37 17 20 1017.2 1016.7 0.0
22/08:30pm 22.7 18.4 16.9 70 3.6 ESE 35 43 19 23 1017.0 1016.5 0.0
22/08:00pm 22.7 18.7 16.7 69 3.7 ESE 33 39 18 21 1016.9 1016.4 0.0
22/07:30pm 22.9 18.7 17.1 70 3.6 ESE 35 43 19 23 1016.6 1016.1 0.0
22/07:00pm 22.8 18.4 16.6 68 3.8 ESE 35 43 19 23 1016.3 1015.8 0.0
22/06:30pm 23.0 18.9 16.5 67 4.0 ESE 33 41 18 22 1016.2 1015.7 0.0
22/06:00pm 23.6 20.3 17.1 67 4.0 ESE 30 39 16 21 1016.4 1015.9 0.0
22/05:30pm 23.4 20.0 16.7 66 4.1 ESE 30 37 16 20 1016.0 1015.5 0.0
22/05:00pm 24.1 21.0 17.4 66 4.2 ESE 30 35 16 19 1015.7 1015.2 0.0
22/04:30pm 24.1 20.4 16.9 64 4.5 ESE 32 37 17 20 1015.4 1014.9 0.0
22/04:00pm 24.0 19.9 16.0 61 4.9 ESE 32 35 17 19 1015.4 1014.9 0.0
22/03:30pm 24.8 21.7 16.5 60 5.1 ESE 28 35 15 19 1015.8 1015.3 0.0
22/03:00pm 24.9 22.1 16.3 59 5.3 ESE 26 33 14 18 1016.0 1015.5 0.0
22/02:30pm 25.2 22.3 16.1 57 5.6 ESE 26 32 14 17 1016.4 1015.9 0.0
22/02:00pm 25.3 22.1 16.2 57 5.6 ESE 28 33 15 18 1016.6 1016.1 0.0
22/01:30pm 25.1 21.1 16.3 58 5.4 ESE 32 39 17 21 1016.7 1016.2 0.0
22/01:00pm 25.6 21.8 16.7 58 5.5 ESE 32 41 17 22 1017.0 1016.5 0.0
22/12:30pm 25.5 22.0 17.4 61 5.1 ESE 32 39 17 21 1017.5 1017.0 0.0
22/12:00pm 25.5 21.6 17.9 63 4.8 ESE 35 43 19 23 1017.7 1017.2 0.0
22/11:30am 25.8 22.0 17.2 59 5.4 ESE 33 39 18 21 1017.9 1017.4 0.0
22/11:00am 25.8 22.1 16.9 58 5.5 ESE 32 37 17 20 1018.2 1017.7 0.0
22/10:30am 26.0 22.5 16.5 55 5.9 SE 30 35 16 19 1018.3 1017.8 0.0
22/10:00am 25.9 22.6 17.0 58 5.5 SE 30 35 16 19 1018.4 1017.9 0.0
22/09:30am 25.1 21.2 16.5 59 5.3 ESE 32 35 17 19 1018.1 1017.6 0.0
22/09:00am 25.2 21.9 16.1 57 5.6 ESE 28 33 15 18 1018.1 1017.6 0.0
22/08:30am 25.5 22.0 16.4 57 5.6 SE 30 33 16 18 1017.9 1017.4 0.0
22/08:00am 25.1 21.4 16.0 57 5.6 SE 30 35 16 19 1017.6 1017.1 0.0
22/07:30am 24.4 20.0 15.1 56 5.6 SE 32 37 17 20 1017.4 1016.9 0.0
22/07:00am 23.9 19.6 15.9 61 4.9 SE 33 39 18 21 1017.1 1016.6 0.0
22/06:30am 23.8 19.6 15.6 60 5.0 ESE 32 39 17 21 1017.2 1016.7 0.0
22/06:00am 23.5 19.5 16.1 63 4.5 ESE 32 35 17 19 1016.8 1016.3 0.0
22/05:30am 22.7 18.9 15.8 65 4.2 ESE 30 37 16 20 1016.3 1015.8 0.0
22/05:00am 22.1 18.8 16.1 69 3.6 ESE 28 33 15 18 1016.2 1015.7 0.0
22/04:30am 21.8 19.0 16.3 71 3.3 ESE 26 32 14 17 1015.9 1015.4 0.0
22/04:00am 21.9 19.0 16.2 70 3.5 ESE 26 32 14 17 1015.5 1015.0 0.0
22/03:30am 22.1 19.4 16.6 71 3.4 ESE 26 32 14 17 1015.6 1015.1 0.0
22/03:00am 22.3 20.0 16.6 70 3.5 SE 24 32 13 17 1015.7 1015.2 0.0
22/02:30am 22.1 20.0 16.1 69 3.6 ESE 22 28 12 15 1015.8 1015.3 0.0
22/02:00am 21.9 19.0 16.0 69 3.6 ESE 26 32 14 17 1016.1 1015.6 0.0
22/01:30am 22.0 19.2 16.3 70 3.5 ESE 26 33 14 18 1016.2 1015.7 0.0
22/01:00am 22.1 18.9 16.4 70 3.5 ESE 28 35 15 19 1016.6 1016.1 0.0
22/12:30am 22.0 19.6 16.3 70 3.5 ESE 24 32 13 17 1016.9 1016.4 0.0
22/12:00am 22.1 19.7 16.4 70 3.5 ESE 24 28 13 15 1017.7 1017.2 0.0
 
Date/Time
EST
Temp
°C
App
Temp
°C
Dew
Point
Rel
Hum
%
Delta-T
°C
Wind Press
QNH
hPa
Press
MSL
hPa
Rain
since 9 am
mm
Dir
 
Spd
km/h
Gust
km/h
Spd
kts
Gust
kts
21/11:30pm 22.3 20.4 16.6 70 3.5 ESE 22 28 12 15 1018.2 1017.7 0.0
21/11:00pm 22.5 20.6 16.8 70 3.5 ESE 22 30 12 16 1018.4 1017.9 0.0
21/10:30pm 22.3 19.6 16.6 70 3.5 ESE 26 32 14 17 1018.2 1017.7 0.0
21/10:00pm 22.4 19.0 16.7 70 3.5 ESE 30 33 16 18 1018.2 1017.7 0.0
21/09:30pm 22.6 18.9 16.9 70 3.5 ESE 32 37 17 20 1018.0 1017.5 0.0
21/09:00pm 22.6 18.7 16.9 70 3.5 ESE 33 39 18 21 1017.9 1017.4 0.0
21/08:30pm 22.6 19.0 17.3 72 3.3 ESE 32 37 17 20 1017.7 1017.2 0.0
21/08:00pm 22.7 19.0 17.4 72 3.3 ESE 33 41 18 22 1017.6 1017.1 0.0
21/07:30pm 22.7 19.2 17.4 72 3.3 ESE 32 37 17 20 1017.4 1016.9 0.0
21/07:00pm 22.8 19.1 17.5 72 3.3 ESE 33 37 18 20 1017.0 1016.5 0.0
21/06:30pm 22.9 19.3 17.6 72 3.3 ESE 33 39 18 21 1016.6 1016.1 0.0
21/06:00pm 23.2 19.5 17.4 70 3.6 E 33 39 18 21 1016.4 1015.9 0.0
21/05:30pm 23.5 20.0 17.5 69 3.7 E 32 37 17 20 1016.2 1015.7 0.0
21/05:00pm 23.8 21.2 17.8 69 3.8 ESE 28 32 15 17 1016.1 1015.6 0.0
21/04:30pm 24.1 21.3 17.4 66 4.2 ESE 28 32 15 17 1016.0 1015.5 0.0
21/04:00pm 24.5 21.9 17.7 66 4.3 E 28 32 15 17 1016.0 1015.5 0.0
21/03:30pm 24.2 21.7 17.2 65 4.4 ESE 26 32 14 17 1016.2 1015.7 0.0
21/03:00pm 24.4 21.4 16.9 63 4.6 ESE 28 32 15 17 1016.2 1015.7 0.0
21/02:30pm 25.4 23.5 17.6 62 4.9 E 24 28 13 15 1016.5 1016.0 0.0
21/02:00pm 26.2 24.6 18.3 61 5.0 E 24 26 13 14 1016.8 1016.3 0.0
21/01:30pm 26.2 25.0 18.3 61 5.0 E 22 24 12 13 1017.1 1016.6 0.0
21/01:00pm 26.2 25.0 18.3 61 5.0 E 22 26 12 14 1017.4 1016.9 0.0
21/12:30pm 26.7 25.7 18.8 62 5.1 E 22 26 12 14 1017.5 1017.0 0.0
21/12:00pm 27.5 27.4 19.6 62 5.1 E 19 22 10 12 1017.8 1017.3 0.0
21/11:30am 26.7 25.7 17.5 57 5.8 ESE 19 24 10 13 1018.1 1017.6 0.0
21/11:00am 27.3 27.3 18.9 60 5.4 ESE 17 20 9 11 1018.5 1018.0 0.0
21/10:30am 26.8 26.3 18.6 60 5.3 ESE 19 22 10 12 1018.6 1018.1 0.0
21/10:00am 26.9 27.2 19.5 64 4.8 E 17 20 9 11 1018.7 1018.2 0.0
21/09:30am 26.2 25.9 19.6 67 4.3 E 20 24 11 13 1018.6 1018.1 0.0
21/09:00am 25.1 24.2 19.0 69 3.9 E 22 30 12 16 1018.3 1017.8 0.0
21/08:30am 25.2 23.9 18.2 65 4.4 E 22 26 12 14 1018.4 1017.9 0.0
21/08:00am 25.6 24.0 18.3 64 4.6 E 24 28 13 15 1018.1 1017.6 0.0
21/07:30am 25.8 24.6 18.5 64 4.7 E 22 28 12 15 1018.0 1017.5 0.0
21/07:00am 25.3 23.9 18.0 64 4.6 E 22 26 12 14 1017.8 1017.3 0.0
21/06:30am 24.4 22.6 17.9 67 4.1 E 24 30 13 16 1017.7 1017.2 0.0
21/06:00am 23.8 22.0 17.8 69 3.8 E 24 30 13 16 1017.3 1016.8 0.0
21/05:30am 23.0 20.7 17.5 71 3.4 E 26 32 14 17 1017.0 1016.5 0.0
21/05:00am 22.5 19.8 17.6 74 3.0 E 28 35 15 19 1016.5 1016.0 0.0
21/04:30am 22.5 19.4 17.4 73 3.2 E 30 35 16 19 1016.0 1015.5 0.0
21/04:00am 22.4 19.1 17.1 72 3.3 ESE 30 35 16 19 1015.9 1015.4 0.0
21/03:30am 22.5 19.7 17.4 73 3.2 E 28 32 15 17 1015.9 1015.4 0.0
21/03:00am 22.6 19.4 17.3 72 3.3 E 30 35 16 19 1016.0 1015.5 0.0
21/02:30am 22.6 19.1 17.5 73 3.2 E 32 37 17 20 1015.8 1015.3 0.0
21/02:00am 22.6 19.6 17.7 74 3.1 E 30 37 16 20 1015.9 1015.4 0.0
21/01:30am 22.8 20.2 17.7 73 3.2 E 28 33 15 18 1016.3 1015.8 0.0
21/01:00am 22.7 19.2 17.4 72 3.3 E 32 35 17 19 1016.2 1015.7 0.0
21/12:30am 22.8 19.5 17.9 74 3.1 E 32 39 17 21 1016.5 1016.0 0.0
21/12:00am 22.8 19.9 17.9 74 3.1 E 30 35 16 19 1016.9 1016.4 0.0
 
Date/Time
EST
Temp
°C
App
Temp
°C
Dew
Point
Rel
Hum
%
Delta-T
°C
Wind Press
QNH
hPa
Press
MSL
hPa
Rain
since 9 am
mm
Dir
 
Spd
km/h
Gust
km/h
Spd
kts
Gust
kts
20/11:30pm 22.8 19.9 17.9 74 3.1 E 30 37 16 20 1017.0 1016.5 0.0
20/11:00pm 22.9 19.9 17.8 73 3.2 E 30 35 16 19 1017.0 1016.5 0.0
20/10:30pm 22.9 19.5 17.8 73 3.2 ESE 32 35 17 19 1017.3 1016.8 0.0
20/10:00pm 22.9 19.0 17.8 73 3.2 E 35 41 19 22 1017.1 1016.6 0.0
20/09:30pm 23.0 19.0 17.7 72 3.3 ESE 35 41 19 22 1017.1 1016.6 0.0
20/09:00pm 23.0 19.5 17.5 71 3.4 E 32 37 17 20 1017.1 1016.6 0.0
20/08:30pm 23.1 19.5 17.6 71 3.4 E 33 39 18 21 1016.7 1016.2 0.0
20/08:00pm 23.2 19.1 18.3 74 3.1 E 37 41 20 22 1016.2 1015.7 0.0
20/07:30pm 23.2 19.6 18.5 75 3.0 E 35 41 19 22 1015.8 1015.3 0.0
20/07:00pm 23.3 19.6 18.4 74 3.1 E 35 41 19 22 1015.4 1014.9 0.0
20/06:30pm 23.3 19.6 18.4 74 3.1 E 35 44 19 24 1014.9 1014.4 0.0
20/06:00pm 23.5 20.5 18.6 74 3.1 E 32 37 17 20 1015.0 1014.5 0.0
20/05:30pm 23.7 20.5 18.6 73 3.2 E 33 39 18 21 1014.6 1014.1 0.0
20/05:00pm 23.7 20.1 18.6 73 3.2 E 35 41 19 22 1013.9 1013.4 0.0
20/04:30pm 24.4 20.9 19.5 74 3.2 ESE 37 43 20 23 1013.4 1012.9 0.0
20/04:00pm 24.5 20.5 19.3 73 3.3 ESE 39 44 21 24 1013.3 1012.8 0.0
20/03:30pm 24.8 21.2 19.4 72 3.5 ESE 37 43 20 23 1013.6 1013.1 0.0
20/03:00pm 25.3 22.5 19.4 70 3.8 ESE 33 39 18 21 1014.0 1013.5 0.0
20/02:30pm 25.4 22.4 19.8 71 3.6 ESE 35 41 19 22 1014.3 1013.8 0.0
20/02:00pm 26.2 23.9 20.1 69 4.0 ESE 32 37 17 20 1014.6 1014.1 0.0
20/01:30pm 26.0 23.4 19.6 68 4.2 ESE 32 39 17 21 1014.7 1014.2 0.0
20/01:00pm 25.7 23.0 19.6 69 4.0 ESE 33 37 18 20 1014.9 1014.4 0.0
20/12:30pm 26.1 23.6 20.2 70 3.9 ESE 33 39 18 21 1015.1 1014.6 0.0
20/12:00pm 26.4 23.5 20.0 68 4.2 ESE 35 41 19 22 1015.3 1014.8 0.0
20/11:30am 26.4 24.1 20.5 70 3.9 ESE 33 37 18 20 1015.7 1015.2 0.0
20/11:00am 26.6 24.4 20.4 69 4.1 ESE 32 35 17 19 1015.9 1015.4 0.0
20/10:30am 26.5 24.4 20.6 70 3.9 ESE 32 37 17 20 1015.9 1015.4 0.0
20/10:00am 25.2 22.9 20.2 74 3.3 SE 32 39 17 21 1015.9 1015.4 0.0
20/09:30am 26.4 24.2 20.7 71 3.8 SE 33 39 18 21 1016.0 1015.5 0.0
20/09:00am 26.2 24.4 20.3 70 3.9 SE 30 35 16 19 1015.9 1015.4 0.2
20/08:30am 25.9 23.8 20.5 72 3.5 ESE 32 37 17 20 1015.7 1015.2 0.2
20/08:00am 24.2 21.6 19.9 77 2.8 SE 33 37 18 20 1015.5 1015.0 0.2
20/07:30am 24.3 21.8 20.2 78 2.7 SE 33 39 18 21 1015.3 1014.8 0.2
20/07:00am 24.2 21.0 20.3 79 2.5 ESE 37 43 20 23 1014.9 1014.4 0.2
20/06:30am 23.6 20.0 20.1 81 2.3 SE 39 46 21 25 1014.5 1014.0 0.2
20/06:00am 23.7 20.1 20.2 81 2.3 SE 39 44 21 24 1014.0 1013.5 0.2

Other Formats:

Comma delimited format used in spreadsheet applications
http://www.bom.gov.au/fwo/IDQ60801/IDQ60801.94594.axf

JavaScript Object Notation format (JSON) in row-major order
http://www.bom.gov.au/fwo/IDQ60801/IDQ60801.94594.json